Time;durP1;ratioP1;P1;durP2;ratioP2;P2;SDS_P1;SDS_P2;PMS_P1;PMS_P2;Temp;Humidity;BMP_temperature;BMP_pressure;BME280_temperature;BME280_humidity;BME280_pressure;Samples;Min_cycle;Max_cycle;Signal;HPM_P1;HPM_P2
2023/01/31 00:00:49;;;;;;;5.95;1.63;;;21.30;31.20;;;;;;5058891;28;20043;-49
2023/01/31 00:03:15;;;;;;;5.38;1.63;;;21.30;31.10;;;;;;5056565;28;20417;-45
2023/01/31 00:05:41;;;;;;;5.25;1.73;;;21.20;31.10;;;;;;5056234;28;20070;-45
2023/01/31 00:08:07;;;;;;;4.97;1.60;;;21.20;31.10;;;;;;5060645;28;20021;-50
2023/01/31 00:10:33;;;;;;;4.18;1.52;;;21.20;31.10;;;;;;5062829;28;21932;-50
2023/01/31 00:12:59;;;;;;;5.60;1.40;;;21.20;31.10;;;;;;5058193;28;20167;-50
2023/01/31 00:15:24;;;;;;;5.82;1.83;;;21.20;31.10;;;;;;5057245;28;20098;-46
2023/01/31 00:17:51;;;;;;;7.38;1.90;;;21.20;31.10;;;;;;5053896;28;20459;-48
2023/01/31 00:20:17;;;;;;;4.10;1.33;;;21.20;31.70;;;;;;5062606;28;20025;-53
2023/01/31 00:22:43;;;;;;;4.85;1.63;;;21.20;31.10;;;;;;5040479;28;20052;-51
2023/01/31 00:25:09;;;;;;;3.80;1.85;;;21.20;31.10;;;;;;5054988;28;20060;-51
2023/01/31 00:27:35;;;;;;;5.68;1.30;;;21.20;31.10;;;;;;5059999;28;20021;-46
2023/01/31 00:30:01;;;;;;;4.10;1.42;;;21.20;31.10;;;;;;5039155;28;20147;-47
2023/01/31 00:32:26;;;;;;;5.18;1.80;;;21.10;31.10;;;;;;5058150;28;20083;-48
2023/01/31 00:34:53;;;;;;;4.78;1.73;;;21.10;31.00;;;;;;5035517;28;20106;-48
2023/01/31 00:37:20;;;;;;;4.18;1.50;;;21.10;31.00;;;;;;5061710;28;20025;-52
2023/01/31 00:39:46;;;;;;;3.83;1.50;;;21.10;31.00;;;;;;5041514;28;20104;-49
2023/01/31 00:42:12;;;;;;;4.10;1.60;;;21.10;31.00;;;;;;5041191;28;20112;-50
2023/01/31 00:44:40;;;;;;;5.57;1.40;;;21.10;31.00;;;;;;5040653;28;20408;-50
2023/01/31 00:47:06;;;;;;;4.90;1.58;;;21.10;31.00;;;;;;5065516;28;20037;-49
2023/01/31 00:49:32;;;;;;;4.13;1.42;;;21.10;31.10;;;;;;5064668;28;20094;-48
2023/01/31 00:51:57;;;;;;;4.55;1.45;;;21.10;31.10;;;;;;5060678;28;20396;-52
2023/01/31 00:54:23;;;;;;;4.40;1.50;;;21.10;31.10;;;;;;5062201;28;20036;-50
2023/01/31 00:56:49;;;;;;;4.20;1.45;;;21.10;31.10;;;;;;5039782;28;20120;-50
2023/01/31 00:59:15;;;;;;;5.22;1.63;;;21.00;31.10;;;;;;5044932;28;20021;-50
2023/01/31 01:01:41;;;;;;;6.25;1.92;;;21.00;31.10;;;;;;5038951;28;20025;-49
2023/01/31 01:04:08;;;;;;;3.90;1.73;;;21.00;31.10;;;;;;5046360;28;20423;-51
2023/01/31 01:06:34;;;;;;;4.78;1.52;;;21.00;31.00;;;;;;5049551;28;20511;-52
2023/01/31 01:08:59;;;;;;;2.90;1.40;;;21.00;31.10;;;;;;5045112;28;20120;-48
2023/01/31 01:11:29;;;;;;;6.57;1.67;;;21.00;31.10;;;;;;5061805;28;20021;-51
2023/01/31 01:13:56;;;;;;;3.97;1.50;;;21.00;31.10;;;;;;5065375;28;20094;-50
2023/01/31 01:16:24;;;;;;;4.38;1.63;;;21.00;31.10;;;;;;5061132;28;20384;-48
2023/01/31 01:18:53;;;;;;;3.92;1.40;;;21.00;31.10;;;;;;5061641;28;20087;-48
2023/01/31 01:21:28;;;;;;;4.93;1.60;;;21.00;31.10;;;;;;5061255;28;20024;-47
2023/01/31 01:23:59;;;;;;;4.93;1.60;;;21.00;31.00;;;;;;5061912;28;20519;-49
2023/01/31 01:26:29;;;;;;;5.28;1.60;;;20.90;31.00;;;;;;5042332;28;20024;-46
2023/01/31 01:28:56;;;;;;;5.78;1.90;;;20.90;31.00;;;;;;5060956;28;20037;-48
2023/01/31 01:31:28;;;;;;;5.18;1.70;;;20.90;31.00;;;;;;5061435;28;20029;-48
2023/01/31 01:34:07;;;;;;;4.47;1.95;;;20.90;31.00;;;;;;5038940;28;20024;-49
2023/01/31 01:36:35;;;;;;;4.70;1.75;;;20.90;31.00;;;;;;5060116;28;20344;-46
2023/01/31 01:39:04;;;;;;;5.53;2.10;;;20.90;31.00;;;;;;5065683;28;20044;-50
2023/01/31 01:41:32;;;;;;;4.68;1.92;;;20.90;31.00;;;;;;5059846;28;20021;-50
2023/01/31 01:43:59;;;;;;;3.80;1.75;;;20.90;31.00;;;;;;5044854;28;20354;-49
2023/01/31 01:46:28;;;;;;;4.82;2.33;;;20.90;31.00;;;;;;5062112;28;20036;-50
2023/01/31 01:49:13;;;;;;;4.78;1.80;;;20.80;31.00;;;;;;5039636;28;20048;-51
2023/01/31 01:51:40;;;;;;;5.25;1.83;;;20.80;31.00;;;;;;5056961;28;20041;-48
2023/01/31 01:54:13;;;;;;;5.80;1.77;;;20.80;31.00;;;;;;5062959;28;20039;-50
2023/01/31 01:56:45;;;;;;;5.97;2.13;;;20.80;31.00;;;;;;5065546;28;20062;-52
2023/01/31 01:59:19;;;;;;;4.18;1.63;;;20.80;31.00;;;;;;5062103;28;20024;-51
2023/01/31 02:01:48;;;;;;;3.92;1.75;;;20.80;31.10;;;;;;5062612;28;20027;-52
2023/01/31 02:04:22;;;;;;;4.65;1.60;;;20.80;31.00;;;;;;5058608;28;20124;-48
2023/01/31 02:06:50;;;;;;;6.63;1.70;;;20.80;31.00;;;;;;5042545;28;20059;-50
2023/01/31 02:09:46;;;;;;;4.68;1.70;;;20.70;31.00;;;;;;5039262;28;20029;-47
2023/01/31 02:12:12;;;;;;;3.95;1.40;;;20.80;31.00;;;;;;5057129;28;20029;-52
2023/01/31 02:14:40;;;;;;;3.22;1.50;;;20.70;31.00;;;;;;5043515;28;20036;-49
2023/01/31 02:17:16;;;;;;;4.65;1.58;;;20.80;31.00;;;;;;5041017;28;20020;-48
2023/01/31 02:20:14;;;;;;;3.67;1.60;;;20.70;31.00;;;;;;5027126;28;20028;-51
2023/01/31 02:23:24;;;;;;;4.53;1.35;;;20.70;31.00;;;;;;5046903;28;20043;-51
2023/01/31 02:26:08;;;;;;;4.60;1.70;;;20.70;31.00;;;;;;4966960;28;20065;-48
2023/01/31 02:28:46;;;;;;;5.85;2.13;;;20.70;31.00;;;;;;5041184;28;20091;-48
2023/01/31 02:31:46;;;;;;;5.75;1.92;;;20.70;31.10;;;;;;5045203;28;20109;-51
2023/01/31 02:34:40;;;;;;;6.35;1.85;;;20.70;31.20;;;;;;5024259;28;20032;-46
2023/01/31 02:37:16;;;;;;;3.63;1.58;;;20.70;31.20;;;;;;5055326;28;20033;-45
2023/01/31 02:40:07;;;;;;;4.72;1.42;;;20.60;31.10;;;;;;5043915;28;20035;-47
2023/01/31 02:43:02;;;;;;;4.45;1.48;;;20.60;31.10;;;;;;5045002;28;20108;-48
2023/01/31 02:45:32;;;;;;;4.57;1.40;;;20.60;31.10;;;;;;5038763;28;20029;-50
2023/01/31 02:48:06;;;;;;;4.68;1.40;;;20.60;31.20;;;;;;5039716;28;20029;-46
2023/01/31 02:50:50;;;;;;;3.33;1.40;;;20.60;31.20;;;;;;5040042;28;20131;-50
2023/01/31 02:53:47;;;;;;;6.03;2.22;;;20.60;31.20;;;;;;5060749;28;20063;-46
2023/01/31 02:56:29;;;;;;;4.32;1.30;;;20.60;31.20;;;;;;5036483;28;20149;-45
2023/01/31 02:59:25;;;;;;;5.75;1.98;;;20.60;31.30;;;;;;5055539;28;20029;-51
2023/01/31 03:01:59;;;;;;;4.40;1.85;;;20.60;31.30;;;;;;5041669;28;20059;-51
2023/01/31 03:04:30;;;;;;;3.60;1.40;;;20.50;31.30;;;;;;5041296;28;20090;-48
2023/01/31 03:07:21;;;;;;;5.28;1.70;;;20.50;31.30;;;;;;5036134;28;20456;-48
2023/01/31 03:10:08;;;;;;;5.85;1.50;;;20.50;31.30;;;;;;5038033;28;20420;-45
2023/01/31 03:12:49;;;;;;;3.58;1.50;;;20.60;31.30;;;;;;5038096;28;20052;-49
2023/01/31 03:17:30;;;;;;;5.47;1.73;;;20.50;31.30;;;;;;5037564;28;20037;-46
2023/01/31 03:18:23;;;;;;;5.88;1.70;;;20.50;31.30;;;;;;5039479;28;20032;-48
2023/01/31 03:21:17;;;;;;;4.35;1.48;;;20.50;31.40;;;;;;5062034;28;20450;-46
2023/01/31 03:23:47;;;;;;;4.53;1.50;;;20.50;31.40;;;;;;5055946;28;20025;-46
2023/01/31 03:26:14;;;;;;;5.15;1.60;;;20.50;31.40;;;;;;5038621;28;20021;-45
2023/01/31 03:28:42;;;;;;;3.65;1.48;;;20.50;31.40;;;;;;5043880;28;20024;-45
2023/01/31 03:31:17;;;;;;;4.70;1.48;;;20.50;31.50;;;;;;5042156;28;20066;-45
2023/01/31 03:33:47;;;;;;;4.70;1.73;;;20.50;31.60;;;;;;5040043;28;20191;-46
2023/01/31 03:36:35;;;;;;;4.43;1.52;;;20.40;31.40;;;;;;5039742;28;20075;-46
2023/01/31 03:39:29;;;;;;;4.15;1.50;;;20.40;31.50;;;;;;5059177;28;20396;-44
2023/01/31 03:42:06;;;;;;;4.88;1.58;;;20.50;31.60;;;;;;5038695;28;20426;-45
2023/01/31 03:44:44;;;;;;;4.78;1.77;;;20.50;31.60;;;;;;5038758;28;20042;-44
2023/01/31 03:47:21;;;;;;;6.00;1.85;;;20.40;31.60;;;;;;5040619;28;20025;-47
2023/01/31 03:49:50;;;;;;;3.28;1.48;;;20.40;31.60;;;;;;5045887;28;20017;-51
2023/01/31 03:52:25;;;;;;;4.43;1.60;;;20.40;31.70;;;;;;5040090;28;20108;-51
2023/01/31 03:55:00;;;;;;;3.63;1.35;;;20.40;31.70;;;;;;5045474;28;20040;-47
2023/01/31 03:57:35;;;;;;;4.50;1.58;;;20.40;31.80;;;;;;5040066;28;20025;-49
2023/01/31 04:00:05;;;;;;;4.93;1.55;;;20.40;31.80;;;;;;5039517;28;20029;-51
2023/01/31 04:02:42;;;;;;;7.60;2.10;;;20.40;31.80;;;;;;5054852;28;20029;-47
2023/01/31 04:05:17;;;;;;;5.25;1.98;;;20.40;31.90;;;;;;5041991;28;20486;-50
2023/01/31 04:07:44;;;;;;;5.22;2.03;;;20.40;31.90;;;;;;5041636;28;20025;-46
2023/01/31 04:10:19;;;;;;;5.15;1.70;;;20.40;31.90;;;;;;5046442;28;20020;-51
2023/01/31 04:12:45;;;;;;;6.68;2.00;;;20.40;32.00;;;;;;5061721;28;20060;-52
2023/01/31 04:15:12;;;;;;;5.05;1.60;;;20.30;32.00;;;;;;5065567;28;20066;-48
2023/01/31 04:17:38;;;;;;;5.90;2.17;;;20.30;32.00;;;;;;5063391;28;20091;-48
2023/01/31 04:20:07;;;;;;;4.80;1.90;;;20.30;32.00;;;;;;5041820;28;20455;-46
2023/01/31 04:22:32;;;;;;;6.60;2.10;;;20.30;32.10;;;;;;5063189;28;20017;-47
2023/01/31 04:24:58;;;;;;;8.13;2.20;;;20.30;32.10;;;;;;5061158;28;20332;-46
2023/01/31 04:27:24;;;;;;;4.32;1.70;;;20.30;32.10;;;;;;5066538;28;20017;-49
2023/01/31 04:29:50;;;;;;;5.47;2.33;;;20.30;32.20;;;;;;5059903;28;20036;-51
2023/01/31 04:32:16;;;;;;;6.00;1.98;;;20.30;32.80;;;;;;5057401;28;20036;-47
2023/01/31 04:34:42;;;;;;;5.82;2.13;;;20.30;32.20;;;;;;5058419;28;20046;-46
2023/01/31 04:37:07;;;;;;;5.57;1.88;;;20.30;32.20;;;;;;5061277;28;20021;-48
2023/01/31 04:39:33;;;;;;;6.38;2.22;;;20.30;32.30;;;;;;5057021;28;20453;-48
2023/01/31 04:41:59;;;;;;;5.65;1.90;;;20.30;32.30;;;;;;5044090;28;20028;-46
2023/01/31 04:44:25;;;;;;;6.95;2.30;;;20.30;32.30;;;;;;5064556;28;20039;-47
2023/01/31 04:46:51;;;;;;;7.05;2.42;;;20.30;32.30;;;;;;5062266;28;20025;-50
2023/01/31 04:49:18;;;;;;;8.93;2.00;;;20.20;32.30;;;;;;5060065;28;20415;-51
2023/01/31 04:51:44;;;;;;;5.85;2.38;;;20.20;32.30;;;;;;5061446;28;20032;-49
2023/01/31 04:54:10;;;;;;;6.28;2.35;;;20.20;32.30;;;;;;5062195;28;20033;-52
2023/01/31 04:56:35;;;;;;;5.15;2.22;;;20.20;32.30;;;;;;5060512;28;20085;-46
2023/01/31 04:59:01;;;;;;;4.95;1.70;;;20.20;32.40;;;;;;5067279;28;20033;-47
2023/01/31 05:01:28;;;;;;;7.65;2.13;;;20.20;32.40;;;;;;5060226;28;20103;-49
2023/01/31 05:03:54;;;;;;;5.20;2.15;;;20.20;32.40;;;;;;5057549;28;20518;-45
2023/01/31 05:06:19;;;;;;;5.78;1.98;;;20.20;32.50;;;;;;5058947;28;20024;-45
2023/01/31 05:08:46;;;;;;;5.80;2.30;;;20.20;32.50;;;;;;5047287;28;20033;-51
2023/01/31 05:11:12;;;;;;;8.20;2.22;;;20.20;32.50;;;;;;5062116;28;20077;-46
2023/01/31 05:13:37;;;;;;;5.38;2.10;;;20.20;32.50;;;;;;5063782;28;20383;-47
2023/01/31 05:16:08;;;;;;;4.55;2.22;;;20.20;33.20;;;;;;5058630;28;20036;-50
2023/01/31 05:18:34;;;;;;;6.22;2.00;;;20.20;32.60;;;;;;5061375;28;20467;-52
2023/01/31 05:21:01;;;;;;;5.13;2.25;;;20.20;32.60;;;;;;5058191;28;20020;-48
2023/01/31 05:23:28;;;;;;;4.75;2.08;;;20.20;32.60;;;;;;5062079;28;20035;-47
2023/01/31 05:25:54;;;;;;;6.75;2.38;;;20.20;32.60;;;;;;5044089;28;20029;-47
2023/01/31 05:28:20;;;;;;;5.00;1.88;;;20.20;32.70;;;;;;5055742;28;20028;-49
2023/01/31 05:30:46;;;;;;;7.13;2.40;;;20.20;32.70;;;;;;5061820;28;20403;-48
2023/01/31 05:33:12;;;;;;;5.90;2.35;;;20.20;32.70;;;;;;5059880;28;20033;-49
2023/01/31 05:35:40;;;;;;;5.47;2.10;;;20.10;32.70;;;;;;5061708;28;20445;-49
2023/01/31 05:38:07;;;;;;;5.15;2.40;;;20.10;32.70;;;;;;5062617;28;20356;-45
2023/01/31 05:40:33;;;;;;;4.32;1.70;;;20.10;32.80;;;;;;5062656;28;20025;-51
2023/01/31 05:43:02;;;;;;;6.72;2.13;;;20.10;32.80;;;;;;5064828;28;20043;-51
2023/01/31 05:45:29;;;;;;;5.93;2.28;;;20.10;32.80;;;;;;5062389;28;20099;-48
2023/01/31 05:47:55;;;;;;;5.25;2.22;;;20.10;32.80;;;;;;5062177;28;20048;-44
2023/01/31 05:50:21;;;;;;;7.43;2.78;;;20.10;32.90;;;;;;5062253;28;20056;-47
2023/01/31 05:52:59;;;;;;;6.40;2.30;;;20.10;32.90;;;;;;5062349;28;20103;-50
2023/01/31 05:55:26;;;;;;;4.38;2.00;;;20.10;32.90;;;;;;5061800;28;20047;-48
2023/01/31 05:57:53;;;;;;;6.18;2.38;;;20.10;32.90;;;;;;5061428;28;20037;-45
2023/01/31 06:00:19;;;;;;;6.80;2.78;;;20.10;32.90;;;;;;5060001;28;20031;-49
2023/01/31 06:02:46;;;;;;;7.00;2.47;;;20.10;33.00;;;;;;5042619;28;20024;-46
2023/01/31 06:05:13;;;;;;;7.03;2.60;;;20.10;33.00;;;;;;5061477;28;20094;-54
2023/01/31 06:07:39;;;;;;;6.22;2.20;;;20.00;33.00;;;;;;5054776;28;20028;-50
2023/01/31 06:10:07;;;;;;;5.72;2.38;;;20.10;33.10;;;;;;5042884;28;20082;-50
2023/01/31 06:12:33;;;;;;;7.93;2.67;;;20.10;33.10;;;;;;5058275;28;20128;-53
2023/01/31 06:14:59;;;;;;;8.63;2.53;;;20.10;33.10;;;;;;5058767;28;20056;-47
2023/01/31 06:17:25;;;;;;;4.88;2.20;;;20.10;33.10;;;;;;5057910;28;20449;-49
2023/01/31 06:19:51;;;;;;;9.70;2.80;;;20.00;33.10;;;;;;5059771;28;20028;-49
2023/01/31 06:22:18;;;;;;;5.65;2.10;;;20.00;33.10;;;;;;5058617;28;20021;-50
2023/01/31 06:24:45;;;;;;;5.40;2.20;;;20.00;33.10;;;;;;5057679;28;20479;-49
2023/01/31 06:27:11;;;;;;;7.07;2.80;;;20.00;33.20;;;;;;5064500;28;20021;-51
2023/01/31 06:29:37;;;;;;;7.72;2.63;;;20.00;33.20;;;;;;5062505;28;20029;-46
2023/01/31 06:32:03;;;;;;;6.35;2.60;;;20.00;33.30;;;;;;5061911;28;20028;-50
2023/01/31 06:34:29;;;;;;;7.35;2.78;;;20.00;33.30;;;;;;5056889;28;20131;-48
2023/01/31 06:36:55;;;;;;;5.20;2.38;;;20.00;33.30;;;;;;5064436;28;20056;-50
2023/01/31 06:39:21;;;;;;;7.28;2.72;;;20.00;33.30;;;;;;5055928;28;20443;-47
2023/01/31 06:41:46;;;;;;;6.30;2.65;;;20.00;33.30;;;;;;5060632;28;20507;-50
2023/01/31 06:44:12;;;;;;;6.43;2.10;;;20.00;33.30;;;;;;5060241;28;20455;-51
2023/01/31 06:46:38;;;;;;;8.63;2.50;;;20.00;33.40;;;;;;5060754;28;20029;-50
2023/01/31 06:49:04;;;;;;;8.70;2.63;;;20.00;33.40;;;;;;5060082;28;20100;-46
2023/01/31 06:51:30;;;;;;;5.45;2.20;;;20.00;33.40;;;;;;5057580;28;20032;-47
2023/01/31 06:53:56;;;;;;;4.43;2.53;;;19.90;33.40;;;;;;5057492;28;20036;-48
2023/01/31 06:56:22;;;;;;;6.82;2.28;;;19.90;33.40;;;;;;5058997;28;20041;-52
2023/01/31 06:58:48;;;;;;;8.43;2.70;;;19.90;33.50;;;;;;5057709;28;20048;-47
2023/01/31 07:01:14;;;;;;;5.75;2.83;;;19.90;33.50;;;;;;5055910;28;20025;-47
2023/01/31 07:03:40;;;;;;;5.63;2.10;;;19.90;33.60;;;;;;5061577;28;20024;-46
2023/01/31 07:06:07;;;;;;;6.15;2.08;;;19.90;33.60;;;;;;5057770;28;20033;-50
2023/01/31 07:08:34;;;;;;;6.30;2.35;;;19.90;33.60;;;;;;5056159;28;20031;-52
2023/01/31 07:11:00;;;;;;;7.40;2.35;;;19.90;33.60;;;;;;5060655;28;20095;-51
2023/01/31 07:13:28;;;;;;;5.70;2.22;;;19.90;33.60;;;;;;5058294;28;20079;-51
2023/01/31 07:15:55;;;;;;;5.55;2.42;;;19.90;33.60;;;;;;5058915;28;20040;-48
2023/01/31 07:18:22;;;;;;;6.95;2.40;;;19.90;33.60;;;;;;5036560;28;20056;-47
2023/01/31 07:20:49;;;;;;;5.20;1.83;;;19.90;33.70;;;;;;5057117;28;20352;-46
2023/01/31 07:23:15;;;;;;;6.30;2.60;;;19.90;33.70;;;;;;5038018;28;20039;-48
2023/01/31 07:25:41;;;;;;;5.75;2.22;;;19.90;33.70;;;;;;5054586;28;20036;-49
2023/01/31 07:28:07;;;;;;;6.65;2.55;;;19.90;33.70;;;;;;5048248;28;20094;-50
2023/01/31 07:30:33;;;;;;;5.55;2.25;;;19.90;33.70;;;;;;5053553;28;20063;-46
2023/01/31 07:32:59;;;;;;;8.30;2.83;;;19.90;33.70;;;;;;5058399;28;20024;-50
2023/01/31 07:35:25;;;;;;;6.10;2.47;;;19.90;33.70;;;;;;5056644;28;20044;-47
2023/01/31 07:37:51;;;;;;;5.65;2.35;;;19.90;33.70;;;;;;5053623;28;20029;-48
2023/01/31 07:40:17;;;;;;;6.45;2.55;;;19.90;33.70;;;;;;5040235;28;20428;-50
2023/01/31 07:42:43;;;;;;;5.82;2.70;;;19.90;33.70;;;;;;5040373;28;20046;-51
2023/01/31 07:45:14;;;;;;;5.22;2.40;;;19.90;33.80;;;;;;5056091;28;20028;-49
2023/01/31 07:47:41;;;;;;;8.27;2.72;;;19.90;33.80;;;;;;5059432;28;20024;-49
2023/01/31 07:50:07;;;;;;;6.82;2.42;;;19.90;33.80;;;;;;5055981;28;20039;-47
2023/01/31 07:52:33;;;;;;;6.38;2.20;;;19.80;33.80;;;;;;5052512;28;20017;-50
2023/01/31 07:54:59;;;;;;;14.75;2.72;;;19.90;33.90;;;;;;5054099;28;20437;-48
2023/01/31 07:57:24;;;;;;;5.40;2.15;;;19.90;34.00;;;;;;5053239;28;20033;-52
2023/01/31 07:59:50;;;;;;;5.13;1.80;;;19.90;34.00;;;;;;5057349;28;20028;-51
2023/01/31 08:05:03;;;;;;;5.80;2.25;;;19.90;34.10;;;;;;5054432;28;20044;-50
2023/01/31 08:07:29;;;;;;;6.82;2.10;;;20.00;34.20;;;;;;5052773;28;20033;-52
2023/01/31 08:09:55;;;;;;;5.88;2.15;;;20.10;34.30;;;;;;5051901;28;20426;-52
2023/01/31 08:12:21;;;;;;;5.53;2.00;;;20.10;34.40;;;;;;5042679;28;20125;-47
2023/01/31 08:14:47;;;;;;;7.68;2.13;;;20.10;34.40;;;;;;5066032;28;20036;-49
2023/01/31 08:17:13;;;;;;;8.75;2.15;;;20.20;35.20;;;;;;5061434;28;20024;-50
2023/01/31 08:19:39;;;;;;;9.82;2.03;;;20.20;34.50;;;;;;5063439;28;20030;-51
2023/01/31 08:22:05;;;;;;;4.82;1.77;;;20.30;34.50;;;;;;5062989;28;20432;-53
2023/01/31 08:24:32;;;;;;;5.93;2.20;;;20.40;34.50;;;;;;5062739;28;20056;-48
2023/01/31 08:26:58;;;;;;;6.28;2.08;;;20.40;34.50;;;;;;5061346;28;20028;-50
2023/01/31 08:29:25;;;;;;;4.07;1.60;;;20.50;34.50;;;;;;5058543;28;20041;-50
2023/01/31 08:31:51;;;;;;;4.45;1.75;;;20.50;34.40;;;;;;5053488;28;20029;-49
2023/01/31 08:34:17;;;;;;;6.32;1.98;;;20.60;34.50;;;;;;5052630;28;20029;-49
2023/01/31 08:36:43;;;;;;;5.13;2.17;;;20.70;34.40;;;;;;5060815;28;20111;-48
2023/01/31 08:39:09;;;;;;;6.55;2.50;;;20.70;34.30;;;;;;5038368;28;20044;-51
2023/01/31 08:41:37;;;;;;;5.47;1.90;;;20.80;34.20;;;;;;5056937;28;20492;-45
2023/01/31 08:44:04;;;;;;;4.80;2.10;;;20.80;34.10;;;;;;5057970;28;20041;-49
2023/01/31 08:46:33;;;;;;;5.25;2.15;;;20.90;34.00;;;;;;5055342;28;20036;-48
2023/01/31 08:49:05;;;;;;;5.93;2.00;;;21.00;33.90;;;;;;5054013;28;20437;-51
2023/01/31 08:51:31;;;;;;;6.40;1.80;;;21.00;33.90;;;;;;5038627;28;20087;-48
2023/01/31 08:53:57;;;;;;;6.05;2.15;;;21.10;33.90;;;;;;5059068;28;20032;-45
2023/01/31 08:56:26;;;;;;;3.55;1.50;;;21.10;33.90;;;;;;5054737;28;20045;-50
2023/01/31 08:58:53;;;;;;;5.20;1.80;;;21.20;33.90;;;;;;5053500;28;20353;-45
2023/01/31 09:01:20;;;;;;;7.72;2.28;;;21.20;33.80;;;;;;5058340;28;20051;-48
2023/01/31 09:03:47;;;;;;;5.30;2.40;;;21.30;33.70;;;;;;5063981;28;20082;-51
2023/01/31 09:06:16;;;;;;;5.50;1.95;;;21.30;33.60;;;;;;5066624;28;20039;-52
2023/01/31 09:08:42;;;;;;;4.57;1.85;;;21.40;34.00;;;;;;5043958;28;20040;-51
2023/01/31 09:11:07;;;;;;;5.03;1.88;;;21.40;33.20;;;;;;5067338;28;20033;-47
2023/01/31 09:13:34;;;;;;;3.95;1.98;;;21.40;33.10;;;;;;5067499;28;20045;-49
2023/01/31 09:16:06;;;;;;;4.75;2.08;;;21.50;33.00;;;;;;5065166;28;20033;-48
2023/01/31 09:18:33;;;;;;;4.45;2.00;;;21.50;32.80;;;;;;5047577;28;20129;-52
2023/01/31 09:21:12;;;;;;;5.47;2.33;;;21.60;32.70;;;;;;5063612;28;20094;-50
2023/01/31 09:23:38;;;;;;;5.05;2.20;;;21.60;32.60;;;;;;5064968;28;20037;-49
2023/01/31 09:26:05;;;;;;;6.82;2.03;;;21.70;32.50;;;;;;5065284;28;20028;-47
2023/01/31 09:28:32;;;;;;;6.55;2.10;;;21.70;32.50;;;;;;5066977;28;20029;-48
2023/01/31 09:31:07;;;;;;;5.35;1.77;;;21.80;32.40;;;;;;5063814;28;20029;-50
2023/01/31 09:33:33;;;;;;;5.75;1.70;;;21.80;32.30;;;;;;5066380;28;20511;-49
2023/01/31 09:36:04;;;;;;;6.15;2.20;;;21.80;32.20;;;;;;5064208;28;20060;-50
2023/01/31 09:38:30;;;;;;;4.68;1.73;;;21.80;32.10;;;;;;5062948;28;20437;-48
2023/01/31 09:40:58;;;;;;;6.18;2.00;;;21.90;32.10;;;;;;5063436;28;20039;-50
2023/01/31 09:43:31;;;;;;;5.28;2.10;;;21.90;32.10;;;;;;5067605;28;20405;-52
2023/01/31 09:46:01;;;;;;;4.38;2.00;;;21.90;32.00;;;;;;5056680;28;20135;-50
2023/01/31 09:48:33;;;;;;;6.13;2.35;;;21.90;31.90;;;;;;5059138;28;20056;-48
2023/01/31 09:51:00;;;;;;;5.53;2.15;;;22.00;31.90;;;;;;5056778;28;20033;-47
2023/01/31 09:53:33;;;;;;;7.43;2.20;;;22.00;31.90;;;;;;5056800;28;20461;-48
2023/01/31 09:56:08;;;;;;;4.50;2.13;;;22.00;31.80;;;;;;5056422;28;20044;-47
2023/01/31 09:58:58;;;;;;;4.90;2.08;;;22.10;31.80;;;;;;5065677;28;20116;-48
2023/01/31 10:01:30;;;;;;;5.07;2.08;;;22.10;31.80;;;;;;5058956;28;20032;-51
2023/01/31 10:04:17;;;;;;;5.30;2.00;;;22.10;31.70;;;;;;5076470;28;20040;-51
2023/01/31 10:06:46;;;;;;;5.38;2.00;;;22.10;31.70;;;;;;5072772;28;20177;-50
2023/01/31 10:09:37;;;;;;;5.05;2.30;;;22.10;31.60;;;;;;5073740;28;20351;-49
2023/01/31 10:12:23;;;;;;;4.93;1.95;;;22.10;31.60;;;;;;5072876;28;20464;-44
2023/01/31 10:14:57;;;;;;;5.65;2.10;;;22.20;31.60;;;;;;5056261;28;20367;-48
2023/01/31 10:17:48;;;;;;;6.25;2.05;;;22.20;31.60;;;;;;5062391;28;20135;-47
2023/01/31 10:20:21;;;;;;;5.13;1.98;;;22.20;31.50;;;;;;5056514;28;20143;-48
2023/01/31 10:22:58;;;;;;;5.72;2.17;;;22.30;31.60;;;;;;5061542;28;20127;-52
2023/01/31 10:25:49;;;;;;;3.70;1.98;;;22.30;31.50;;;;;;5075958;28;20347;-49
2023/01/31 10:28:37;;;;;;;5.03;1.85;;;22.20;31.50;;;;;;5058516;28;20028;-49
2023/01/31 10:31:21;;;;;;;4.53;2.03;;;22.30;31.50;;;;;;5069793;28;20036;-51
2023/01/31 10:34:03;;;;;;;5.95;2.20;;;22.30;31.50;;;;;;5069662;28;20436;-47
2023/01/31 10:36:48;;;;;;;7.72;2.60;;;22.30;31.50;;;;;;5055932;28;20037;-47
2023/01/31 10:39:44;;;;;;;5.40;2.00;;;22.30;31.40;;;;;;5055702;28;20059;-50
2023/01/31 10:42:28;;;;;;;4.72;2.00;;;22.30;31.40;;;;;;5072063;28;20329;-47
2023/01/31 10:45:18;;;;;;;4.47;1.73;;;22.30;31.40;;;;;;5075956;28;20399;-47
2023/01/31 10:47:52;;;;;;;3.75;1.80;;;22.40;31.50;;;;;;5055421;28;20021;-52
2023/01/31 10:50:23;;;;;;;3.17;1.55;;;22.30;31.50;;;;;;5050150;28;20406;-51
2023/01/31 10:52:55;;;;;;;4.47;1.70;;;22.30;31.50;;;;;;5056440;28;20452;-52
2023/01/31 10:56:06;;;;;;;4.40;1.80;;;22.30;31.50;;;;;;5055082;28;20048;-51
2023/01/31 10:58:34;;;;;;;4.20;2.10;;;22.40;31.50;;;;;;5035416;28;20052;-47
2023/01/31 11:01:01;;;;;;;3.47;1.65;;;22.40;31.50;;;;;;5075607;28;20028;-48
2023/01/31 11:03:27;;;;;;;3.83;1.60;;;22.40;31.50;;;;;;5072033;28;20033;-49
2023/01/31 11:05:55;;;;;;;3.88;1.77;;;22.40;31.60;;;;;;5056661;28;20364;-52
2023/01/31 11:08:28;;;;;;;4.00;1.52;;;22.40;31.50;;;;;;5055292;28;20103;-50
2023/01/31 11:10:56;;;;;;;4.03;1.60;;;22.40;31.60;;;;;;5063164;28;20033;-50
2023/01/31 11:13:23;;;;;;;5.72;2.03;;;22.40;31.80;;;;;;5058207;28;20044;-46
2023/01/31 11:15:52;;;;;;;3.25;1.30;;;22.40;31.90;;;;;;5058109;28;20063;-48
2023/01/31 11:18:41;;;;;;;6.25;1.70;;;22.40;32.00;;;;;;5056517;28;20144;-48
2023/01/31 11:21:07;;;;;;;4.60;1.60;;;22.40;32.00;;;;;;5054806;28;20075;-49
2023/01/31 11:23:35;;;;;;;3.20;1.30;;;22.40;32.10;;;;;;5056976;28;20061;-49
2023/01/31 11:26:02;;;;;;;3.60;1.50;;;22.40;32.30;;;;;;5062673;28;20020;-51
2023/01/31 11:28:33;;;;;;;3.80;1.58;;;22.40;32.50;;;;;;5037818;28;20112;-51
2023/01/31 11:31:00;;;;;;;4.30;1.38;;;22.40;32.70;;;;;;5063978;28;20111;-55
2023/01/31 11:33:40;;;;;;;5.35;1.77;;;22.40;32.90;;;;;;5058802;28;20410;-55
2023/01/31 11:36:13;;;;;;;3.45;1.63;;;22.40;32.90;;;;;;5062255;28;20044;-51
2023/01/31 11:38:40;;;;;;;4.40;1.65;;;22.40;33.00;;;;;;5063891;28;20025;-55
2023/01/31 11:41:27;;;;;;;8.00;1.52;;;22.50;33.00;;;;;;5058964;28;20025;-54
2023/01/31 11:44:14;;;;;;;4.22;1.42;;;22.60;33.00;;;;;;5056809;28;20060;-53
2023/01/31 11:46:53;;;;;;;2.88;1.20;;;22.70;33.00;;;;;;5054199;28;20031;-56
2023/01/31 11:49:41;;;;;;;4.13;1.50;;;22.80;32.90;;;;;;5067123;28;20040;-58
2023/01/31 11:52:16;;;;;;;5.88;1.70;;;22.90;32.90;;;;;;5057311;28;20046;-52
2023/01/31 11:54:47;;;;;;;2.88;1.25;;;23.00;32.90;;;;;;5061825;28;20036;-54
2023/01/31 11:57:20;;;;;;;4.07;1.63;;;23.20;32.90;;;;;;5061342;28;20157;-56
2023/01/31 11:59:49;;;;;;;4.05;1.63;;;23.20;32.70;;;;;;5064738;28;20028;-51
2023/01/31 12:02:31;;;;;;;4.07;1.45;;;23.30;32.50;;;;;;5057806;28;20132;-53
2023/01/31 12:04:59;;;;;;;5.97;1.60;;;23.40;32.30;;;;;;5060171;28;20498;-54
2023/01/31 12:07:44;;;;;;;3.78;1.25;;;23.50;32.30;;;;;;5057961;28;20029;-51
2023/01/31 12:10:27;;;;;;;4.43;1.13;;;23.50;32.30;;;;;;5063439;28;20024;-52
2023/01/31 12:13:00;;;;;;;4.82;1.50;;;23.60;32.30;;;;;;5054737;28;20489;-55
2023/01/31 12:15:28;;;;;;;2.90;1.30;;;23.60;32.30;;;;;;5054004;28;20140;-54
2023/01/31 12:17:54;;;;;;;2.58;1.17;;;23.60;32.40;;;;;;5053864;28;20037;-55
2023/01/31 12:20:47;;;;;;;4.47;1.40;;;23.70;32.40;;;;;;5056124;28;20029;-48
2023/01/31 12:23:34;;;;;;;4.72;1.65;;;23.80;32.40;;;;;;5054482;28;20502;-50
2023/01/31 12:26:19;;;;;;;5.25;1.70;;;23.80;32.30;;;;;;5046510;28;20039;-50
2023/01/31 12:29:18;;;;;;;3.60;1.63;;;23.80;32.20;;;;;;5042482;28;20028;-50
2023/01/31 12:32:08;;;;;;;3.35;1.17;;;23.80;32.10;;;;;;5058580;28;20040;-49
2023/01/31 12:34:43;;;;;;;3.05;1.20;;;23.80;32.10;;;;;;5043794;28;20029;-53
2023/01/31 12:37:18;;;;;;;3.78;1.42;;;23.80;32.20;;;;;;5066307;28;20128;-49
2023/01/31 12:39:57;;;;;;;6.28;1.58;;;23.90;32.40;;;;;;5066162;28;20111;-49
2023/01/31 12:42:37;;;;;;;3.33;1.48;;;23.90;32.50;;;;;;5064979;28;20039;-52
2023/01/31 12:45:10;;;;;;;5.10;1.50;;;24.00;32.50;;;;;;5060091;28;20040;-54
2023/01/31 12:48:09;;;;;;;3.28;1.40;;;24.00;32.60;;;;;;5065162;28;20345;-55
2023/01/31 12:50:50;;;;;;;7.70;1.67;;;24.00;32.60;;;;;;5066421;28;20033;-48
2023/01/31 12:53:25;;;;;;;4.00;1.42;;;24.00;32.70;;;;;;5063631;28;20024;-51
2023/01/31 12:56:16;;;;;;;3.03;1.45;;;24.10;32.70;;;;;;5063668;28;20190;-52
2023/01/31 12:59:13;;;;;;;4.20;1.75;;;24.10;32.60;;;;;;5067233;28;20063;-57
2023/01/31 13:01:56;;;;;;;2.78;1.20;;;24.10;32.50;;;;;;5061901;28;20041;-55
2023/01/31 13:05:14;;;;;;;4.55;1.33;;;24.10;32.40;;;;;;5049505;28;20021;-54
2023/01/31 13:08:06;;;;;;;4.70;1.52;;;24.10;32.30;;;;;;5028549;28;20041;-51
2023/01/31 13:11:04;;;;;;;4.60;1.70;;;24.10;32.30;;;;;;5059181;28;20029;-53
2023/01/31 13:13:50;;;;;;;4.55;1.40;;;24.10;32.40;;;;;;5064199;28;20368;-51
2023/01/31 13:16:32;;;;;;;5.05;1.80;;;24.10;32.40;;;;;;5061363;28;20091;-50